sensor_id;sensor_type;location;lat;lon;timestamp;P1;durP1;ratioP1;P2;durP2;ratioP2
8642;SDS011;4359;49.358;11.256;2024-02-21T00:04:29;15.85;;;6.03;;
8642;SDS011;4359;49.358;11.256;2024-02-21T00:06:55;19.67;;;6.28;;
8642;SDS011;4359;49.358;11.256;2024-02-21T00:09:20;18.98;;;5.80;;
8642;SDS011;4359;49.358;11.256;2024-02-21T00:11:46;16.80;;;5.97;;
8642;SDS011;4359;49.358;11.256;2024-02-21T00:14:12;18.52;;;6.05;;
8642;SDS011;4359;49.358;11.256;2024-02-21T00:19:03;18.50;;;5.90;;
8642;SDS011;4359;49.358;11.256;2024-02-21T00:23:55;23.38;;;6.25;;
8642;SDS011;4359;49.358;11.256;2024-02-21T00:28:46;13.82;;;5.22;;
8642;SDS011;4359;49.358;11.256;2024-02-21T00:31:11;12.60;;;5.25;;
8642;SDS011;4359;49.358;11.256;2024-02-21T00:33:37;14.23;;;4.93;;
8642;SDS011;4359;49.358;11.256;2024-02-21T00:38:28;18.75;;;5.70;;
8642;SDS011;4359;49.358;11.256;2024-02-21T00:40:54;19.90;;;5.15;;
8642;SDS011;4359;49.358;11.256;2024-02-21T00:43:20;17.73;;;5.70;;
8642;SDS011;4359;49.358;11.256;2024-02-21T00:45:48;12.43;;;5.05;;
8642;SDS011;4359;49.358;11.256;2024-02-21T00:50:39;12.38;;;5.85;;
8642;SDS011;4359;49.358;11.256;2024-02-21T00:53:05;17.77;;;5.90;;
8642;SDS011;4359;49.358;11.256;2024-02-21T00:55:31;12.52;;;5.15;;
8642;SDS011;4359;49.358;11.256;2024-02-21T00:57:57;17.42;;;5.50;;
8642;SDS011;4359;49.358;11.256;2024-02-21T01:00:22;20.73;;;6.13;;
8642;SDS011;4359;49.358;11.256;2024-02-21T01:02:48;16.15;;;5.30;;
8642;SDS011;4359;49.358;11.256;2024-02-21T01:05:13;21.90;;;5.50;;
8642;SDS011;4359;49.358;11.256;2024-02-21T01:07:39;16.73;;;5.10;;
8642;SDS011;4359;49.358;11.256;2024-02-21T01:10:05;16.20;;;5.20;;
8642;SDS011;4359;49.358;11.256;2024-02-21T01:12:31;20.83;;;5.22;;
8642;SDS011;4359;49.358;11.256;2024-02-21T01:17:22;15.73;;;5.13;;
8642;SDS011;4359;49.358;11.256;2024-02-21T01:22:13;14.27;;;5.38;;
8642;SDS011;4359;49.358;11.256;2024-02-21T01:24:41;13.25;;;4.20;;
8642;SDS011;4359;49.358;11.256;2024-02-21T01:27:07;15.02;;;4.90;;
8642;SDS011;4359;49.358;11.256;2024-02-21T01:29:32;19.60;;;5.20;;
8642;SDS011;4359;49.358;11.256;2024-02-21T01:31:58;14.95;;;5.03;;
8642;SDS011;4359;49.358;11.256;2024-02-21T01:36:49;12.38;;;4.63;;
8642;SDS011;4359;49.358;11.256;2024-02-21T01:39:15;17.55;;;5.10;;
8642;SDS011;4359;49.358;11.256;2024-02-21T01:41:41;18.98;;;4.55;;
8642;SDS011;4359;49.358;11.256;2024-02-21T01:44:06;17.38;;;5.07;;
8642;SDS011;4359;49.358;11.256;2024-02-21T01:48:58;11.70;;;4.32;;
8642;SDS011;4359;49.358;11.256;2024-02-21T01:51:24;10.85;;;4.40;;
8642;SDS011;4359;49.358;11.256;2024-02-21T01:53:50;13.80;;;4.45;;
8642;SDS011;4359;49.358;11.256;2024-02-21T01:56:18;17.70;;;4.53;;
8642;SDS011;4359;49.358;11.256;2024-02-21T01:58:44;14.25;;;4.35;;
8642;SDS011;4359;49.358;11.256;2024-02-21T02:01:11;22.67;;;4.95;;
8642;SDS011;4359;49.358;11.256;2024-02-21T02:03:37;14.73;;;4.25;;
8642;SDS011;4359;49.358;11.256;2024-02-21T02:06:04;15.27;;;4.90;;
8642;SDS011;4359;49.358;11.256;2024-02-21T02:08:31;11.65;;;4.10;;
8642;SDS011;4359;49.358;11.256;2024-02-21T02:13:23;16.67;;;4.47;;
8642;SDS011;4359;49.358;11.256;2024-02-21T02:15:49;11.93;;;4.25;;
8642;SDS011;4359;49.358;11.256;2024-02-21T02:18:15;21.45;;;5.45;;
8642;SDS011;4359;49.358;11.256;2024-02-21T02:20:42;15.38;;;5.05;;
8642;SDS011;4359;49.358;11.256;2024-02-21T02:25:57;12.70;;;4.10;;
8642;SDS011;4359;49.358;11.256;2024-02-21T02:28:23;14.75;;;4.50;;
8642;SDS011;4359;49.358;11.256;2024-02-21T02:30:49;14.80;;;4.47;;
8642;SDS011;4359;49.358;11.256;2024-02-21T02:33:15;16.73;;;4.97;;
8642;SDS011;4359;49.358;11.256;2024-02-21T02:35:44;20.70;;;5.13;;
8642;SDS011;4359;49.358;11.256;2024-02-21T02:38:10;15.02;;;4.80;;
8642;SDS011;4359;49.358;11.256;2024-02-21T02:40:40;14.00;;;4.38;;
8642;SDS011;4359;49.358;11.256;2024-02-21T02:43:06;13.60;;;4.38;;
8642;SDS011;4359;49.358;11.256;2024-02-21T02:47:58;21.98;;;4.47;;
8642;SDS011;4359;49.358;11.256;2024-02-21T02:50:24;19.88;;;4.80;;
8642;SDS011;4359;49.358;11.256;2024-02-21T02:52:50;17.85;;;4.78;;
8642;SDS011;4359;49.358;11.256;2024-02-21T02:55:16;13.75;;;4.25;;
8642;SDS011;4359;49.358;11.256;2024-02-21T02:57:42;14.73;;;4.30;;
8642;SDS011;4359;49.358;11.256;2024-02-21T03:02:35;18.05;;;4.82;;
8642;SDS011;4359;49.358;11.256;2024-02-21T03:05:03;18.50;;;5.00;;
8642;SDS011;4359;49.358;11.256;2024-02-21T03:07:38;15.45;;;4.60;;
8642;SDS011;4359;49.358;11.256;2024-02-21T03:12:29;18.63;;;4.63;;
8642;SDS011;4359;49.358;11.256;2024-02-21T03:14:55;19.92;;;5.38;;
8642;SDS011;4359;49.358;11.256;2024-02-21T03:17:21;11.13;;;4.72;;
8642;SDS011;4359;49.358;11.256;2024-02-21T03:19:46;17.25;;;4.72;;
8642;SDS011;4359;49.358;11.256;2024-02-21T03:22:13;10.88;;;4.15;;
8642;SDS011;4359;49.358;11.256;2024-02-21T03:27:04;19.88;;;4.95;;
8642;SDS011;4359;49.358;11.256;2024-02-21T03:29:30;11.25;;;4.20;;
8642;SDS011;4359;49.358;11.256;2024-02-21T03:31:55;18.35;;;4.78;;
8642;SDS011;4359;49.358;11.256;2024-02-21T03:36:47;21.92;;;4.75;;
8642;SDS011;4359;49.358;11.256;2024-02-21T03:39:12;19.00;;;5.03;;
8642;SDS011;4359;49.358;11.256;2024-02-21T03:41:38;12.40;;;4.45;;
8642;SDS011;4359;49.358;11.256;2024-02-21T03:46:30;15.63;;;4.68;;
8642;SDS011;4359;49.358;11.256;2024-02-21T03:48:55;17.98;;;4.68;;
8642;SDS011;4359;49.358;11.256;2024-02-21T03:51:22;12.90;;;4.75;;
8642;SDS011;4359;49.358;11.256;2024-02-21T03:56:13;13.52;;;4.20;;
8642;SDS011;4359;49.358;11.256;2024-02-21T03:58:38;10.30;;;3.97;;
8642;SDS011;4359;49.358;11.256;2024-02-21T04:03:30;11.95;;;4.25;;
8642;SDS011;4359;49.358;11.256;2024-02-21T04:05:56;14.48;;;4.20;;
8642;SDS011;4359;49.358;11.256;2024-02-21T04:10:47;14.38;;;4.07;;
8642;SDS011;4359;49.358;11.256;2024-02-21T04:15:39;14.65;;;4.45;;
8642;SDS011;4359;49.358;11.256;2024-02-21T04:20:30;13.93;;;4.28;;
8642;SDS011;4359;49.358;11.256;2024-02-21T04:22:56;16.20;;;4.38;;
8642;SDS011;4359;49.358;11.256;2024-02-21T04:25:22;13.13;;;4.60;;
8642;SDS011;4359;49.358;11.256;2024-02-21T04:30:13;18.15;;;4.60;;
8642;SDS011;4359;49.358;11.256;2024-02-21T04:32:39;22.30;;;5.70;;
8642;SDS011;4359;49.358;11.256;2024-02-21T04:35:05;20.30;;;5.30;;
8642;SDS011;4359;49.358;11.256;2024-02-21T04:37:32;20.30;;;4.20;;
8642;SDS011;4359;49.358;11.256;2024-02-21T04:42:23;14.38;;;4.82;;
8642;SDS011;4359;49.358;11.256;2024-02-21T04:44:48;17.35;;;5.05;;
8642;SDS011;4359;49.358;11.256;2024-02-21T04:49:39;18.40;;;4.72;;
8642;SDS011;4359;49.358;11.256;2024-02-21T04:52:05;18.55;;;4.40;;
8642;SDS011;4359;49.358;11.256;2024-02-21T04:54:31;16.33;;;4.60;;
8642;SDS011;4359;49.358;11.256;2024-02-21T04:56:56;13.57;;;5.07;;
8642;SDS011;4359;49.358;11.256;2024-02-21T04:59:22;15.25;;;4.85;;
8642;SDS011;4359;49.358;11.256;2024-02-21T05:01:48;16.58;;;5.00;;
8642;SDS011;4359;49.358;11.256;2024-02-21T05:04:13;17.00;;;5.05;;
8642;SDS011;4359;49.358;11.256;2024-02-21T05:09:08;13.80;;;4.60;;
8642;SDS011;4359;49.358;11.256;2024-02-21T05:11:37;15.10;;;4.47;;
8642;SDS011;4359;49.358;11.256;2024-02-21T05:14:03;15.25;;;5.03;;
8642;SDS011;4359;49.358;11.256;2024-02-21T05:16:30;19.33;;;5.18;;
8642;SDS011;4359;49.358;11.256;2024-02-21T05:18:56;14.40;;;5.22;;
8642;SDS011;4359;49.358;11.256;2024-02-21T05:21:25;16.20;;;4.72;;
8642;SDS011;4359;49.358;11.256;2024-02-21T05:23:51;15.07;;;4.93;;
8642;SDS011;4359;49.358;11.256;2024-02-21T05:26:23;18.45;;;4.85;;
8642;SDS011;4359;49.358;11.256;2024-02-21T05:28:50;17.05;;;5.97;;
8642;SDS011;4359;49.358;11.256;2024-02-21T05:31:17;16.33;;;5.00;;
8642;SDS011;4359;49.358;11.256;2024-02-21T05:33:43;17.33;;;4.85;;
8642;SDS011;4359;49.358;11.256;2024-02-21T05:36:09;12.38;;;4.85;;
8642;SDS011;4359;49.358;11.256;2024-02-21T05:38:35;15.98;;;4.30;;
8642;SDS011;4359;49.358;11.256;2024-02-21T05:41:01;15.40;;;5.15;;
8642;SDS011;4359;49.358;11.256;2024-02-21T05:43:27;16.27;;;4.78;;
8642;SDS011;4359;49.358;11.256;2024-02-21T05:48:18;14.75;;;5.18;;
8642;SDS011;4359;49.358;11.256;2024-02-21T05:50:44;16.27;;;5.63;;
8642;SDS011;4359;49.358;11.256;2024-02-21T05:53:10;19.00;;;6.30;;
8642;SDS011;4359;49.358;11.256;2024-02-21T05:55:36;17.05;;;6.38;;
8642;SDS011;4359;49.358;11.256;2024-02-21T05:58:01;19.23;;;5.95;;
8642;SDS011;4359;49.358;11.256;2024-02-21T06:02:53;15.15;;;5.80;;
8642;SDS011;4359;49.358;11.256;2024-02-21T06:05:19;14.43;;;5.93;;
8642;SDS011;4359;49.358;11.256;2024-02-21T06:07:45;23.15;;;6.13;;
8642;SDS011;4359;49.358;11.256;2024-02-21T06:12:37;14.70;;;5.45;;
8642;SDS011;4359;49.358;11.256;2024-02-21T06:15:02;14.70;;;5.70;;
8642;SDS011;4359;49.358;11.256;2024-02-21T06:17:28;15.73;;;6.60;;
8642;SDS011;4359;49.358;11.256;2024-02-21T06:22:19;13.80;;;5.18;;
8642;SDS011;4359;49.358;11.256;2024-02-21T06:24:45;10.68;;;5.15;;
8642;SDS011;4359;49.358;11.256;2024-02-21T06:27:11;17.65;;;7.25;;
8642;SDS011;4359;49.358;11.256;2024-02-21T06:29:37;23.65;;;6.30;;
8642;SDS011;4359;49.358;11.256;2024-02-21T06:32:02;19.52;;;6.53;;
8642;SDS011;4359;49.358;11.256;2024-02-21T06:36:54;13.32;;;5.78;;
8642;SDS011;4359;49.358;11.256;2024-02-21T06:39:19;21.65;;;6.45;;
8642;SDS011;4359;49.358;11.256;2024-02-21T06:41:46;21.30;;;6.63;;
8642;SDS011;4359;49.358;11.256;2024-02-21T06:44:15;17.73;;;5.50;;
8642;SDS011;4359;49.358;11.256;2024-02-21T06:46:44;19.75;;;6.65;;
8642;SDS011;4359;49.358;11.256;2024-02-21T06:51:40;19.80;;;6.22;;
8642;SDS011;4359;49.358;11.256;2024-02-21T06:54:07;18.55;;;6.95;;
8642;SDS011;4359;49.358;11.256;2024-02-21T06:56:34;23.33;;;6.53;;
8642;SDS011;4359;49.358;11.256;2024-02-21T06:59:01;16.58;;;5.65;;
8642;SDS011;4359;49.358;11.256;2024-02-21T07:01:28;22.63;;;6.88;;
8642;SDS011;4359;49.358;11.256;2024-02-21T07:03:54;17.42;;;6.05;;
8642;SDS011;4359;49.358;11.256;2024-02-21T07:08:45;30.55;;;7.45;;
8642;SDS011;4359;49.358;11.256;2024-02-21T07:11:11;19.80;;;7.03;;
8642;SDS011;4359;49.358;11.256;2024-02-21T07:13:36;23.27;;;7.50;;
8642;SDS011;4359;49.358;11.256;2024-02-21T07:16:02;21.50;;;6.90;;
8642;SDS011;4359;49.358;11.256;2024-02-21T07:18:28;28.63;;;8.00;;
8642;SDS011;4359;49.358;11.256;2024-02-21T07:23:20;34.60;;;11.25;;
8642;SDS011;4359;49.358;11.256;2024-02-21T07:25:45;21.75;;;7.80;;
8642;SDS011;4359;49.358;11.256;2024-02-21T07:30:36;25.05;;;6.38;;
8642;SDS011;4359;49.358;11.256;2024-02-21T07:33:02;23.73;;;6.43;;
8642;SDS011;4359;49.358;11.256;2024-02-21T07:35:28;15.40;;;5.28;;
8642;SDS011;4359;49.358;11.256;2024-02-21T07:37:53;20.30;;;5.10;;
8642;SDS011;4359;49.358;11.256;2024-02-21T07:40:19;18.35;;;4.43;;
8642;SDS011;4359;49.358;11.256;2024-02-21T07:42:44;14.38;;;4.28;;
8642;SDS011;4359;49.358;11.256;2024-02-21T07:45:10;18.23;;;4.70;;
8642;SDS011;4359;49.358;11.256;2024-02-21T07:47:36;12.98;;;4.10;;
8642;SDS011;4359;49.358;11.256;2024-02-21T07:50:02;12.75;;;3.95;;
8642;SDS011;4359;49.358;11.256;2024-02-21T07:52:29;11.85;;;3.83;;
8642;SDS011;4359;49.358;11.256;2024-02-21T07:54:54;10.95;;;3.40;;
8642;SDS011;4359;49.358;11.256;2024-02-21T07:57:20;9.45;;;3.10;;
8642;SDS011;4359;49.358;11.256;2024-02-21T07:59:47;13.77;;;3.20;;
8642;SDS011;4359;49.358;11.256;2024-02-21T08:02:16;11.20;;;3.13;;
8642;SDS011;4359;49.358;11.256;2024-02-21T08:04:41;10.38;;;3.17;;
8642;SDS011;4359;49.358;11.256;2024-02-21T08:07:07;13.60;;;3.40;;
8642;SDS011;4359;49.358;11.256;2024-02-21T08:09:35;13.48;;;3.65;;
8642;SDS011;4359;49.358;11.256;2024-02-21T08:12:03;11.85;;;3.40;;
8642;SDS011;4359;49.358;11.256;2024-02-21T08:14:29;10.80;;;3.40;;
8642;SDS011;4359;49.358;11.256;2024-02-21T08:16:55;13.68;;;3.13;;
8642;SDS011;4359;49.358;11.256;2024-02-21T08:19:21;7.70;;;3.15;;
8642;SDS011;4359;49.358;11.256;2024-02-21T08:21:47;9.55;;;2.85;;
8642;SDS011;4359;49.358;11.256;2024-02-21T08:24:13;10.52;;;2.70;;
8642;SDS011;4359;49.358;11.256;2024-02-21T08:26:42;11.63;;;3.05;;
8642;SDS011;4359;49.358;11.256;2024-02-21T08:29:10;9.00;;;3.00;;
8642;SDS011;4359;49.358;11.256;2024-02-21T08:31:36;11.07;;;2.95;;
8642;SDS011;4359;49.358;11.256;2024-02-21T08:34:02;11.65;;;3.17;;
8642;SDS011;4359;49.358;11.256;2024-02-21T08:36:32;12.18;;;3.55;;
8642;SDS011;4359;49.358;11.256;2024-02-21T08:38:59;10.05;;;2.60;;
8642;SDS011;4359;49.358;11.256;2024-02-21T08:41:26;9.75;;;2.60;;
8642;SDS011;4359;49.358;11.256;2024-02-21T08:43:52;11.35;;;2.80;;
8642;SDS011;4359;49.358;11.256;2024-02-21T08:46:21;9.32;;;2.60;;
8642;SDS011;4359;49.358;11.256;2024-02-21T08:48:49;9.55;;;2.50;;
8642;SDS011;4359;49.358;11.256;2024-02-21T08:51:17;8.32;;;2.53;;
8642;SDS011;4359;49.358;11.256;2024-02-21T08:53:44;10.48;;;2.55;;
8642;SDS011;4359;49.358;11.256;2024-02-21T08:56:13;13.05;;;2.63;;
8642;SDS011;4359;49.358;11.256;2024-02-21T08:58:39;8.50;;;2.50;;
8642;SDS011;4359;49.358;11.256;2024-02-21T09:01:05;9.05;;;2.60;;
8642;SDS011;4359;49.358;11.256;2024-02-21T09:03:34;9.55;;;2.22;;
8642;SDS011;4359;49.358;11.256;2024-02-21T09:06:04;9.55;;;2.45;;
8642;SDS011;4359;49.358;11.256;2024-02-21T09:08:30;11.77;;;2.67;;
8642;SDS011;4359;49.358;11.256;2024-02-21T09:10:56;11.45;;;3.15;;
8642;SDS011;4359;49.358;11.256;2024-02-21T09:13:21;12.85;;;2.95;;
8642;SDS011;4359;49.358;11.256;2024-02-21T09:15:48;9.68;;;3.03;;
8642;SDS011;4359;49.358;11.256;2024-02-21T09:18:14;10.85;;;2.65;;
8642;SDS011;4359;49.358;11.256;2024-02-21T09:20:41;13.18;;;2.67;;
8642;SDS011;4359;49.358;11.256;2024-02-21T09:23:07;15.55;;;2.80;;
8642;SDS011;4359;49.358;11.256;2024-02-21T09:25:33;9.52;;;2.47;;
8642;SDS011;4359;49.358;11.256;2024-02-21T09:28:00;10.60;;;2.30;;
8642;SDS011;4359;49.358;11.256;2024-02-21T09:30:26;8.40;;;2.30;;
8642;SDS011;4359;49.358;11.256;2024-02-21T09:32:52;11.98;;;2.95;;
8642;SDS011;4359;49.358;11.256;2024-02-21T09:35:18;10.90;;;2.50;;
8642;SDS011;4359;49.358;11.256;2024-02-21T09:37:43;11.02;;;3.05;;
8642;SDS011;4359;49.358;11.256;2024-02-21T09:40:09;11.30;;;2.60;;
8642;SDS011;4359;49.358;11.256;2024-02-21T09:42:39;12.40;;;2.83;;
8642;SDS011;4359;49.358;11.256;2024-02-21T09:45:20;9.38;;;2.38;;
8642;SDS011;4359;49.358;11.256;2024-02-21T09:50:24;11.27;;;2.67;;
8642;SDS011;4359;49.358;11.256;2024-02-21T09:52:54;14.20;;;2.47;;
8642;SDS011;4359;49.358;11.256;2024-02-21T09:55:21;13.48;;;3.05;;
8642;SDS011;4359;49.358;11.256;2024-02-21T09:57:47;10.30;;;2.10;;
8642;SDS011;4359;49.358;11.256;2024-02-21T10:00:15;9.55;;;2.15;;
8642;SDS011;4359;49.358;11.256;2024-02-21T10:02:46;8.43;;;2.53;;
8642;SDS011;4359;49.358;11.256;2024-02-21T10:05:15;9.07;;;2.25;;
8642;SDS011;4359;49.358;11.256;2024-02-21T10:07:42;8.98;;;2.53;;
8642;SDS011;4359;49.358;11.256;2024-02-21T10:10:09;9.90;;;2.20;;
8642;SDS011;4359;49.358;11.256;2024-02-21T10:12:35;13.38;;;2.50;;
8642;SDS011;4359;49.358;11.256;2024-02-21T10:15:04;10.57;;;2.90;;
8642;SDS011;4359;49.358;11.256;2024-02-21T10:17:34;13.70;;;2.40;;
8642;SDS011;4359;49.358;11.256;2024-02-21T10:20:10;9.45;;;2.20;;
8642;SDS011;4359;49.358;11.256;2024-02-21T10:22:37;10.23;;;2.30;;
8642;SDS011;4359;49.358;11.256;2024-02-21T10:27:37;10.00;;;2.40;;
8642;SDS011;4359;49.358;11.256;2024-02-21T10:30:04;11.95;;;3.00;;
8642;SDS011;4359;49.358;11.256;2024-02-21T10:32:32;8.88;;;2.33;;
8642;SDS011;4359;49.358;11.256;2024-02-21T10:35:02;12.07;;;2.63;;
8642;SDS011;4359;49.358;11.256;2024-02-21T10:37:31;8.65;;;2.50;;
8642;SDS011;4359;49.358;11.256;2024-02-21T10:39:57;11.60;;;2.15;;
8642;SDS011;4359;49.358;11.256;2024-02-21T10:42:23;11.88;;;2.40;;
8642;SDS011;4359;49.358;11.256;2024-02-21T10:44:55;9.75;;;2.63;;
8642;SDS011;4359;49.358;11.256;2024-02-21T10:47:26;8.55;;;1.95;;
8642;SDS011;4359;49.358;11.256;2024-02-21T10:50:02;10.82;;;2.63;;
8642;SDS011;4359;49.358;11.256;2024-02-21T10:55:31;13.43;;;3.25;;
8642;SDS011;4359;49.358;11.256;2024-02-21T10:58:04;9.52;;;2.40;;
8642;SDS011;4359;49.358;11.256;2024-02-21T11:00:29;11.52;;;2.35;;
8642;SDS011;4359;49.358;11.256;2024-02-21T11:02:56;11.10;;;2.00;;
8642;SDS011;4359;49.358;11.256;2024-02-21T11:05:23;9.82;;;2.47;;
8642;SDS011;4359;49.358;11.256;2024-02-21T11:07:49;9.05;;;2.20;;
8642;SDS011;4359;49.358;11.256;2024-02-21T11:10:23;13.85;;;2.63;;
8642;SDS011;4359;49.358;11.256;2024-02-21T11:13:08;10.32;;;2.20;;
8642;SDS011;4359;49.358;11.256;2024-02-21T11:15:34;9.10;;;1.92;;
8642;SDS011;4359;49.358;11.256;2024-02-21T11:18:00;10.57;;;2.05;;
8642;SDS011;4359;49.358;11.256;2024-02-21T11:20:32;7.30;;;1.83;;
8642;SDS011;4359;49.358;11.256;2024-02-21T11:23:02;9.30;;;1.52;;
8642;SDS011;4359;49.358;11.256;2024-02-21T11:25:29;9.10;;;2.05;;
8642;SDS011;4359;49.358;11.256;2024-02-21T11:27:59;7.25;;;1.77;;
8642;SDS011;4359;49.358;11.256;2024-02-21T11:30:31;9.02;;;1.70;;
8642;SDS011;4359;49.358;11.256;2024-02-21T11:33:00;8.32;;;1.92;;
8642;SDS011;4359;49.358;11.256;2024-02-21T11:35:35;10.35;;;1.90;;
8642;SDS011;4359;49.358;11.256;2024-02-21T11:38:08;7.10;;;1.77;;
8642;SDS011;4359;49.358;11.256;2024-02-21T11:40:44;9.23;;;2.00;;
8642;SDS011;4359;49.358;11.256;2024-02-21T11:43:11;10.02;;;2.05;;
8642;SDS011;4359;49.358;11.256;2024-02-21T11:45:37;6.07;;;1.90;;
8642;SDS011;4359;49.358;11.256;2024-02-21T11:48:05;8.40;;;1.75;;
8642;SDS011;4359;49.358;11.256;2024-02-21T11:50:31;5.70;;;1.77;;
8642;SDS011;4359;49.358;11.256;2024-02-21T11:52:57;8.15;;;1.90;;
8642;SDS011;4359;49.358;11.256;2024-02-21T11:55:23;7.35;;;1.73;;
8642;SDS011;4359;49.358;11.256;2024-02-21T11:57:49;7.57;;;1.90;;
8642;SDS011;4359;49.358;11.256;2024-02-21T12:00:15;8.55;;;1.70;;
8642;SDS011;4359;49.358;11.256;2024-02-21T12:02:42;7.32;;;1.80;;
8642;SDS011;4359;49.358;11.256;2024-02-21T12:05:10;6.15;;;1.85;;
8642;SDS011;4359;49.358;11.256;2024-02-21T12:07:36;5.70;;;1.52;;
8642;SDS011;4359;49.358;11.256;2024-02-21T12:10:07;6.30;;;1.52;;
8642;SDS011;4359;49.358;11.256;2024-02-21T12:12:36;8.40;;;1.50;;
8642;SDS011;4359;49.358;11.256;2024-02-21T12:15:06;7.07;;;2.00;;
8642;SDS011;4359;49.358;11.256;2024-02-21T12:17:33;9.25;;;1.75;;
8642;SDS011;4359;49.358;11.256;2024-02-21T12:19:59;8.32;;;2.42;;
8642;SDS011;4359;49.358;11.256;2024-02-21T12:22:26;8.43;;;1.60;;
8642;SDS011;4359;49.358;11.256;2024-02-21T12:24:53;5.32;;;1.33;;
8642;SDS011;4359;49.358;11.256;2024-02-21T12:27:18;7.10;;;1.60;;
8642;SDS011;4359;49.358;11.256;2024-02-21T12:29:44;9.75;;;2.03;;
8642;SDS011;4359;49.358;11.256;2024-02-21T12:32:09;6.55;;;1.55;;
8642;SDS011;4359;49.358;11.256;2024-02-21T12:34:35;5.18;;;1.70;;
8642;SDS011;4359;49.358;11.256;2024-02-21T12:37:01;7.85;;;1.30;;
8642;SDS011;4359;49.358;11.256;2024-02-21T12:39:28;5.22;;;1.17;;
8642;SDS011;4359;49.358;11.256;2024-02-21T12:41:54;5.28;;;1.23;;
8642;SDS011;4359;49.358;11.256;2024-02-21T12:44:21;5.93;;;1.40;;
8642;SDS011;4359;49.358;11.256;2024-02-21T12:46:46;7.65;;;1.42;;
8642;SDS011;4359;49.358;11.256;2024-02-21T12:49:17;5.65;;;1.67;;
8642;SDS011;4359;49.358;11.256;2024-02-21T12:51:43;5.70;;;1.92;;
8642;SDS011;4359;49.358;11.256;2024-02-21T12:54:11;12.40;;;2.45;;
8642;SDS011;4359;49.358;11.256;2024-02-21T12:56:37;6.90;;;1.60;;
8642;SDS011;4359;49.358;11.256;2024-02-21T12:59:04;6.18;;;1.30;;
8642;SDS011;4359;49.358;11.256;2024-02-21T13:01:32;6.53;;;1.40;;
8642;SDS011;4359;49.358;11.256;2024-02-21T13:03:58;10.40;;;1.75;;
8642;SDS011;4359;49.358;11.256;2024-02-21T13:06:25;5.90;;;1.60;;
8642;SDS011;4359;49.358;11.256;2024-02-21T13:08:51;8.45;;;1.70;;
8642;SDS011;4359;49.358;11.256;2024-02-21T13:11:17;4.60;;;1.25;;
8642;SDS011;4359;49.358;11.256;2024-02-21T13:13:42;3.72;;;1.17;;
8642;SDS011;4359;49.358;11.256;2024-02-21T13:16:08;5.90;;;1.73;;
8642;SDS011;4359;49.358;11.256;2024-02-21T13:18:35;5.93;;;1.48;;
8642;SDS011;4359;49.358;11.256;2024-02-21T13:21:03;6.25;;;1.63;;
8642;SDS011;4359;49.358;11.256;2024-02-21T13:23:31;8.27;;;2.75;;
8642;SDS011;4359;49.358;11.256;2024-02-21T13:25:57;7.57;;;1.73;;
8642;SDS011;4359;49.358;11.256;2024-02-21T13:28:23;5.72;;;1.45;;
8642;SDS011;4359;49.358;11.256;2024-02-21T13:30:48;5.40;;;1.38;;
8642;SDS011;4359;49.358;11.256;2024-02-21T13:33:14;7.15;;;1.60;;
8642;SDS011;4359;49.358;11.256;2024-02-21T13:35:41;3.85;;;1.10;;
8642;SDS011;4359;49.358;11.256;2024-02-21T13:38:06;9.07;;;1.60;;
8642;SDS011;4359;49.358;11.256;2024-02-21T13:40:32;8.35;;;1.70;;
8642;SDS011;4359;49.358;11.256;2024-02-21T13:42:58;6.85;;;1.73;;
8642;SDS011;4359;49.358;11.256;2024-02-21T13:45:24;4.25;;;1.30;;
8642;SDS011;4359;49.358;11.256;2024-02-21T13:47:50;4.88;;;1.50;;
8642;SDS011;4359;49.358;11.256;2024-02-21T13:50:16;9.38;;;1.65;;
8642;SDS011;4359;49.358;11.256;2024-02-21T13:52:42;6.55;;;1.40;;
8642;SDS011;4359;49.358;11.256;2024-02-21T13:55:08;5.32;;;1.40;;
8642;SDS011;4359;49.358;11.256;2024-02-21T13:57:34;4.55;;;1.23;;
8642;SDS011;4359;49.358;11.256;2024-02-21T14:00:01;11.18;;;1.70;;
8642;SDS011;4359;49.358;11.256;2024-02-21T14:02:28;5.30;;;1.90;;
8642;SDS011;4359;49.358;11.256;2024-02-21T14:04:53;10.40;;;1.80;;
8642;SDS011;4359;49.358;11.256;2024-02-21T14:07:19;7.35;;;1.70;;
8642;SDS011;4359;49.358;11.256;2024-02-21T14:09:45;6.53;;;1.30;;
8642;SDS011;4359;49.358;11.256;2024-02-21T14:12:11;5.07;;;1.40;;
8642;SDS011;4359;49.358;11.256;2024-02-21T14:14:37;4.35;;;1.30;;
8642;SDS011;4359;49.358;11.256;2024-02-21T14:17:02;8.00;;;1.80;;
8642;SDS011;4359;49.358;11.256;2024-02-21T14:19:29;7.55;;;1.63;;
8642;SDS011;4359;49.358;11.256;2024-02-21T14:21:55;5.88;;;1.95;;
8642;SDS011;4359;49.358;11.256;2024-02-21T14:24:21;6.05;;;1.30;;
8642;SDS011;4359;49.358;11.256;2024-02-21T14:26:49;5.28;;;1.40;;
8642;SDS011;4359;49.358;11.256;2024-02-21T14:29:14;8.30;;;1.48;;
8642;SDS011;4359;49.358;11.256;2024-02-21T14:31:40;5.03;;;1.60;;
8642;SDS011;4359;49.358;11.256;2024-02-21T14:34:06;5.10;;;1.27;;
8642;SDS011;4359;49.358;11.256;2024-02-21T14:36:32;6.63;;;1.77;;
8642;SDS011;4359;49.358;11.256;2024-02-21T14:38:58;4.20;;;1.15;;
8642;SDS011;4359;49.358;11.256;2024-02-21T14:41:24;6.43;;;1.65;;
8642;SDS011;4359;49.358;11.256;2024-02-21T14:43:50;6.93;;;1.33;;
8642;SDS011;4359;49.358;11.256;2024-02-21T14:46:16;6.43;;;1.58;;
8642;SDS011;4359;49.358;11.256;2024-02-21T14:48:42;4.85;;;1.40;;
8642;SDS011;4359;49.358;11.256;2024-02-21T14:51:08;5.65;;;1.45;;
8642;SDS011;4359;49.358;11.256;2024-02-21T14:53:34;6.22;;;1.45;;
8642;SDS011;4359;49.358;11.256;2024-02-21T14:55:59;4.47;;;1.23;;
8642;SDS011;4359;49.358;11.256;2024-02-21T14:58:25;6.80;;;1.17;;
8642;SDS011;4359;49.358;11.256;2024-02-21T15:00:52;4.72;;;1.17;;
8642;SDS011;4359;49.358;11.256;2024-02-21T15:03:19;5.22;;;1.30;;
8642;SDS011;4359;49.358;11.256;2024-02-21T15:05:45;4.95;;;1.27;;
8642;SDS011;4359;49.358;11.256;2024-02-21T15:08:12;5.30;;;1.73;;
8642;SDS011;4359;49.358;11.256;2024-02-21T15:10:41;5.88;;;1.70;;
8642;SDS011;4359;49.358;11.256;2024-02-21T15:13:07;4.60;;;1.38;;
8642;SDS011;4359;49.358;11.256;2024-02-21T15:15:33;5.72;;;1.50;;
8642;SDS011;4359;49.358;11.256;2024-02-21T15:17:59;6.85;;;1.50;;
8642;SDS011;4359;49.358;11.256;2024-02-21T15:20:24;5.55;;;1.35;;
8642;SDS011;4359;49.358;11.256;2024-02-21T15:22:50;6.22;;;1.27;;
8642;SDS011;4359;49.358;11.256;2024-02-21T15:25:15;6.63;;;1.40;;
8642;SDS011;4359;49.358;11.256;2024-02-21T15:27:43;7.30;;;1.77;;
8642;SDS011;4359;49.358;11.256;2024-02-21T15:30:13;6.22;;;1.80;;
8642;SDS011;4359;49.358;11.256;2024-02-21T15:32:39;4.95;;;1.55;;
8642;SDS011;4359;49.358;11.256;2024-02-21T15:35:09;6.38;;;1.60;;
8642;SDS011;4359;49.358;11.256;2024-02-21T15:37:38;5.93;;;1.45;;
8642;SDS011;4359;49.358;11.256;2024-02-21T15:40:04;4.95;;;1.35;;
8642;SDS011;4359;49.358;11.256;2024-02-21T15:42:33;5.40;;;1.50;;
8642;SDS011;4359;49.358;11.256;2024-02-21T15:44:59;6.00;;;1.63;;
8642;SDS011;4359;49.358;11.256;2024-02-21T15:47:30;9.20;;;2.45;;
8642;SDS011;4359;49.358;11.256;2024-02-21T15:49:56;7.05;;;2.35;;
8642;SDS011;4359;49.358;11.256;2024-02-21T15:52:22;8.65;;;3.05;;
8642;SDS011;4359;49.358;11.256;2024-02-21T15:54:48;13.52;;;5.70;;
8642;SDS011;4359;49.358;11.256;2024-02-21T15:57:13;10.73;;;4.38;;
8642;SDS011;4359;49.358;11.256;2024-02-21T15:59:39;7.72;;;2.45;;
8642;SDS011;4359;49.358;11.256;2024-02-21T16:02:05;6.40;;;1.92;;
8642;SDS011;4359;49.358;11.256;2024-02-21T16:04:31;9.13;;;3.22;;
8642;SDS011;4359;49.358;11.256;2024-02-21T16:06:59;8.52;;;3.17;;
8642;SDS011;4359;49.358;11.256;2024-02-21T16:09:25;8.98;;;2.60;;
8642;SDS011;4359;49.358;11.256;2024-02-21T16:11:53;6.55;;;2.25;;
8642;SDS011;4359;49.358;11.256;2024-02-21T16:14:19;5.78;;;2.17;;
8642;SDS011;4359;49.358;11.256;2024-02-21T16:16:46;6.07;;;1.63;;
8642;SDS011;4359;49.358;11.256;2024-02-21T16:19:13;5.93;;;1.40;;
8642;SDS011;4359;49.358;11.256;2024-02-21T16:21:43;8.70;;;1.38;;
8642;SDS011;4359;49.358;11.256;2024-02-21T16:24:08;5.53;;;1.50;;
8642;SDS011;4359;49.358;11.256;2024-02-21T16:26:35;6.82;;;1.45;;